createdAt,value
2018-02-06T00:00:58.594Z,1019.22
2018-02-06T00:01:58.600Z,1019.24
2018-02-06T00:02:58.611Z,1019.18
2018-02-06T00:03:58.624Z,1019.20
2018-02-06T00:04:58.624Z,1019.21
2018-02-06T00:05:58.620Z,1019.22
2018-02-06T00:06:58.635Z,1019.20
2018-02-06T00:07:58.648Z,1019.20
2018-02-06T00:08:58.650Z,1019.21
2018-02-06T00:09:58.658Z,1019.19
2018-02-06T00:10:58.652Z,1019.18
2018-02-06T00:11:58.668Z,1019.24
2018-02-06T00:12:58.683Z,1019.17
2018-02-06T00:13:58.682Z,1019.16
2018-02-06T00:14:58.698Z,1019.17
2018-02-06T00:15:58.685Z,1019.15
2018-02-06T00:16:58.697Z,1019.15
2018-02-06T00:17:58.705Z,1019.08
2018-02-06T00:18:58.713Z,1019.15
2018-02-06T00:19:58.724Z,1019.15
2018-02-06T00:20:58.726Z,1019.10
2018-02-06T00:21:58.742Z,1019.11
2018-02-06T00:22:58.740Z,1019.09
2018-02-06T00:23:58.743Z,1019.13
2018-02-06T00:24:58.755Z,1019.10
2018-02-06T00:25:58.756Z,1019.13
2018-02-06T00:26:58.761Z,1019.09
2018-02-06T00:27:58.768Z,1019.11
2018-02-06T00:28:58.774Z,1019.08
2018-02-06T00:29:58.787Z,1019.12
2018-02-06T00:30:58.783Z,1019.07
2018-02-06T00:31:58.790Z,1019.06
2018-02-06T00:32:58.803Z,1019.09
2018-02-06T00:33:58.811Z,1019.05
2018-02-06T00:34:58.815Z,1019.01
2018-02-06T00:35:58.831Z,1019.03
2018-02-06T00:36:58.822Z,1019.07
2018-02-06T00:37:58.835Z,1019.04
2018-02-06T00:38:58.843Z,1019.00
2018-02-06T00:39:58.848Z,1018.96
2018-02-06T00:40:58.864Z,1018.97
2018-02-06T00:41:58.854Z,1018.96
2018-02-06T00:42:58.865Z,1018.90
2018-02-06T00:43:58.876Z,1018.93
2018-02-06T00:44:58.880Z,1018.86
2018-02-06T00:45:58.876Z,1018.86
2018-02-06T00:46:58.890Z,1018.89
2018-02-06T00:47:58.893Z,1018.89
2018-02-06T00:48:58.910Z,1018.88
2018-02-06T00:49:58.916Z,1018.89
2018-02-06T00:50:58.907Z,1018.87
2018-02-06T00:51:58.920Z,1018.90
2018-02-06T00:52:58.936Z,1018.84
2018-02-06T00:53:58.935Z,1018.88
2018-02-06T00:54:58.946Z,1018.85
2018-02-06T00:55:58.944Z,1018.85
2018-02-06T00:56:58.953Z,1018.84
2018-02-06T00:57:58.966Z,1018.78
2018-02-06T00:58:58.967Z,1018.78
2018-02-06T00:59:58.966Z,1018.79
2018-02-06T01:00:58.971Z,1018.74
2018-02-06T01:01:58.980Z,1018.76
2018-02-06T01:02:59.004Z,1018.76
2018-02-06T01:03:58.999Z,1018.78
2018-02-06T01:04:58.999Z,1018.73
2018-02-06T01:05:59.013Z,1018.70
2018-02-06T01:06:59.014Z,1018.69
2018-02-06T01:07:59.044Z,1018.69
2018-02-06T01:08:59.029Z,1018.71
2018-02-06T01:09:59.030Z,1018.68
2018-02-06T01:10:59.039Z,1018.68
2018-02-06T01:11:59.045Z,1018.65
2018-02-06T01:12:59.059Z,1018.69
2018-02-06T01:13:59.059Z,1018.64
2018-02-06T01:14:59.059Z,1018.60
2018-02-06T01:15:59.074Z,1018.62
2018-02-06T01:16:59.077Z,1018.60
2018-02-06T01:17:59.084Z,1018.60
2018-02-06T01:18:59.085Z,1018.59
2018-02-06T01:19:59.096Z,1018.59
2018-02-06T01:20:59.105Z,1018.60
2018-02-06T01:21:59.120Z,1018.54
2018-02-06T01:22:59.108Z,1018.54
2018-02-06T01:23:59.118Z,1018.44
2018-02-06T01:24:59.123Z,1018.47
2018-02-06T01:25:59.132Z,1018.44
2018-02-06T01:26:59.147Z,1018.41
2018-02-06T01:27:59.139Z,1018.41
2018-02-06T01:28:59.154Z,1018.38
2018-02-06T01:29:59.158Z,1018.37
2018-02-06T01:30:59.175Z,1018.35
2018-02-06T01:31:59.180Z,1018.36
2018-02-06T01:32:59.170Z,1018.34
2018-02-06T01:33:59.181Z,1018.28
2018-02-06T01:34:59.191Z,1018.28
2018-02-06T01:35:59.194Z,1018.21
2018-02-06T01:36:59.196Z,1018.27
2018-02-06T01:37:59.207Z,1018.20
2018-02-06T01:38:59.208Z,1018.16
2018-02-06T01:39:59.227Z,1018.16
2018-02-06T01:40:59.225Z,1018.21
2018-02-06T01:41:59.222Z,1018.17
2018-02-06T01:42:59.240Z,1018.19
2018-02-06T01:43:59.244Z,1018.20
2018-02-06T01:44:59.256Z,1018.17
2018-02-06T01:45:59.252Z,1018.17
2018-02-06T01:46:59.257Z,1018.16
2018-02-06T01:47:59.267Z,1018.13
2018-02-06T01:48:59.276Z,1018.07
2018-02-06T01:49:59.269Z,1018.07
2018-02-06T01:50:59.281Z,1018.05
2018-02-06T01:51:59.289Z,1018.03
2018-02-06T01:52:59.301Z,1018.05
2018-02-06T01:53:59.311Z,1018.03
2018-02-06T01:54:59.303Z,1018.02
2018-02-06T01:55:59.334Z,1018.01
2018-02-06T01:56:59.321Z,1017.97
2018-02-06T01:57:59.329Z,1017.95
2018-02-06T01:58:59.335Z,1017.94
2018-02-06T01:59:59.337Z,1018.00
2018-02-06T02:00:59.345Z,1017.93
2018-02-06T02:01:59.360Z,1017.96
2018-02-06T02:02:59.347Z,1017.95
2018-02-06T02:03:59.363Z,1017.96
2018-02-06T02:04:59.367Z,1017.95
2018-02-06T02:05:59.376Z,1017.94
2018-02-06T02:06:59.379Z,1017.93
2018-02-06T02:07:59.382Z,1017.93
2018-02-06T02:08:59.397Z,1017.93
2018-02-06T02:09:59.406Z,1017.92
2018-02-06T02:10:59.409Z,1017.90
2018-02-06T02:11:59.406Z,1017.89
2018-02-06T02:12:59.434Z,1017.85
2018-02-06T02:13:59.424Z,1017.82
2018-02-06T02:14:59.429Z,1017.82
2018-02-06T02:15:59.446Z,1017.79
2018-02-06T02:16:59.436Z,1017.77
2018-02-06T02:17:59.444Z,1017.77
2018-02-06T02:18:59.460Z,1017.75
2018-02-06T02:19:59.448Z,1017.74
2018-02-06T02:20:59.460Z,1017.73
2018-02-06T02:21:59.470Z,1017.74
2018-02-06T02:22:59.474Z,1017.75
2018-02-06T02:23:59.478Z,1017.74
2018-02-06T02:24:59.484Z,1017.69
2018-02-06T02:25:59.495Z,1017.71
2018-02-06T02:26:59.503Z,1017.68
2018-02-06T02:27:59.509Z,1017.67
2018-02-06T02:28:59.510Z,1017.67
2018-02-06T02:29:59.517Z,1017.67
2018-02-06T02:30:59.523Z,1017.67
2018-02-06T02:31:59.538Z,1017.68
2018-02-06T02:32:59.532Z,1017.64
2018-02-06T02:33:59.535Z,1017.65
2018-02-06T02:34:59.559Z,1017.67
2018-02-06T02:35:59.555Z,1017.62
2018-02-06T02:36:59.554Z,1017.64
2018-02-06T02:37:59.568Z,1017.68
2018-02-06T02:38:59.570Z,1017.62
2018-02-06T02:39:59.585Z,1017.60
2018-02-06T02:40:59.578Z,1017.55
2018-02-06T04:39:00.295Z,1016.60
2018-02-06T04:40:00.271Z,1016.52
2018-02-06T04:41:00.272Z,1016.54
2018-02-06T04:42:00.278Z,1016.50
2018-02-06T04:43:00.286Z,1016.55
2018-02-06T04:44:00.324Z,1016.45
2018-02-06T04:45:00.293Z,1016.48
2018-02-06T04:46:00.296Z,1016.45
2018-02-06T04:47:00.309Z,1016.45
2018-02-06T04:48:00.307Z,1016.47
2018-02-06T04:49:00.317Z,1016.48
2018-02-06T04:50:00.324Z,1016.47
2018-02-06T04:51:00.329Z,1016.43
2018-02-06T04:52:00.332Z,1016.41
2018-02-06T04:53:00.334Z,1016.45
2018-02-06T04:54:00.346Z,1016.46
2018-02-06T04:55:00.356Z,1016.41
2018-02-06T04:56:00.348Z,1016.43
2018-02-06T04:57:00.359Z,1016.49
2018-02-06T04:58:00.369Z,1016.41
2018-02-06T04:59:00.362Z,1016.41
2018-02-06T05:00:00.377Z,1016.39
2018-02-06T05:01:00.381Z,1016.38
2018-02-06T05:02:00.391Z,1016.38
2018-02-06T05:03:00.391Z,1016.37
2018-02-06T05:04:00.399Z,1016.37
2018-02-06T05:05:00.410Z,1016.38
2018-02-06T05:06:00.416Z,1016.36
2018-02-06T05:07:00.408Z,1016.36
2018-02-06T05:08:00.423Z,1016.33
2018-02-06T05:09:00.424Z,1016.31
2018-02-06T05:10:00.422Z,1016.29
2018-02-06T05:11:00.438Z,1016.28
2018-02-06T05:12:00.440Z,1016.22
2018-02-06T05:13:00.458Z,1016.23
2018-02-06T05:14:00.451Z,1016.21
2018-02-06T05:15:00.459Z,1016.22
2018-02-06T05:16:00.466Z,1016.19
2018-02-06T05:17:00.487Z,1016.11
2018-02-06T05:18:00.473Z,1016.16
2018-02-06T05:19:00.480Z,1016.19
2018-02-06T05:20:00.488Z,1016.20
2018-02-06T05:21:00.501Z,1016.19
2018-02-06T05:22:00.498Z,1016.16
2018-02-06T05:23:00.505Z,1016.18
2018-02-06T05:24:00.513Z,1016.13
2018-02-06T05:25:00.505Z,1016.11
2018-02-06T05:26:00.520Z,1016.10
2018-02-06T05:27:00.527Z,1016.11
2018-02-06T05:28:00.539Z,1016.03
2018-02-06T05:29:00.549Z,1016.10
2018-02-06T05:30:00.545Z,1016.05
2018-02-06T05:31:00.547Z,1016.04
2018-02-06T05:32:00.548Z,1016.04
2018-02-06T05:33:00.551Z,1016.08
2018-02-06T05:34:00.561Z,1016.03
2018-02-06T05:35:00.573Z,1016.01
2018-02-06T05:36:00.567Z,1016.00
2018-02-06T05:37:00.580Z,1016.03
2018-02-06T05:38:00.590Z,1015.99
2018-02-06T05:39:00.610Z,1015.99
2018-02-06T05:40:00.597Z,1016.01
2018-02-06T05:41:00.603Z,1016.02
2018-02-06T05:42:00.607Z,1015.99
2018-02-06T05:43:00.613Z,1015.97
2018-02-06T05:44:00.611Z,1016.04
2018-02-06T05:45:00.625Z,1016.01
2018-02-06T05:46:00.634Z,1016.04
2018-02-06T05:47:00.630Z,1016.00
2018-02-06T05:48:00.641Z,1015.98
2018-02-06T05:49:00.645Z,1016.00
2018-02-06T05:50:00.656Z,1015.98
2018-02-06T05:51:00.659Z,1015.96
2018-02-06T05:52:00.657Z,1015.98
2018-02-06T05:53:00.670Z,1015.94
2018-02-06T05:54:00.666Z,1015.98
2018-02-06T05:55:00.672Z,1015.92
2018-02-06T05:56:00.689Z,1015.92
2018-02-06T05:57:00.691Z,1015.91
2018-02-06T05:58:00.689Z,1015.90
2018-02-06T05:59:00.705Z,1015.89
2018-02-06T06:00:00.706Z,1015.94
2018-02-06T06:01:00.708Z,1015.92
2018-02-06T06:02:00.715Z,1015.91
2018-02-06T06:03:00.720Z,1015.87
2018-02-06T06:04:00.731Z,1015.86
2018-02-06T06:05:00.729Z,1015.89
2018-02-06T06:06:00.736Z,1015.88
2018-02-06T06:07:00.745Z,1015.89
2018-02-06T06:08:00.739Z,1015.88
2018-02-06T06:09:00.752Z,1015.90
2018-02-06T06:10:00.762Z,1015.81
2018-02-06T06:11:00.768Z,1015.82
2018-02-06T06:12:00.770Z,1015.82
2018-02-06T06:13:00.773Z,1015.81
2018-02-06T06:14:00.780Z,1015.82
2018-02-06T06:15:00.783Z,1015.87
2018-02-06T06:16:00.782Z,1015.84
2018-02-06T06:17:00.797Z,1015.89
2018-02-06T06:18:00.805Z,1015.86
2018-02-06T06:19:00.797Z,1015.87
2018-02-06T06:20:00.818Z,1015.86
2018-02-06T06:21:00.832Z,1015.82
2018-02-06T06:22:00.817Z,1015.81
2018-02-06T06:23:00.843Z,1015.84
2018-02-06T06:24:00.845Z,1015.85
2018-02-06T06:25:00.848Z,1015.87
2018-02-06T06:26:00.840Z,1015.89
2018-02-06T06:27:00.849Z,1015.91
2018-02-06T06:28:00.855Z,1015.91
2018-02-06T06:29:00.857Z,1015.93
2018-02-06T06:30:00.868Z,1015.89
2018-02-06T06:31:00.870Z,1015.85
2018-02-06T06:32:00.879Z,1015.86
2018-02-06T06:33:00.918Z,1015.82
2018-02-06T06:34:00.885Z,1015.81
2018-02-06T06:35:00.893Z,1015.80
2018-02-06T06:36:00.890Z,1015.79
2018-02-06T06:37:00.901Z,1015.79
2018-02-06T06:38:00.915Z,1015.78
2018-02-06T06:39:00.916Z,1015.77
2018-02-06T06:40:00.914Z,1015.79
2018-02-06T06:41:00.918Z,1015.80
2018-02-06T06:42:00.927Z,1015.78
2018-02-06T06:43:00.935Z,1015.76
2018-02-06T06:44:00.935Z,1015.76
2018-02-06T06:45:00.951Z,1015.75
2018-02-06T06:46:00.958Z,1015.73
2018-02-06T06:47:00.947Z,1015.75
2018-02-06T06:48:00.963Z,1015.80
2018-02-06T06:49:00.966Z,1015.77
2018-02-06T06:50:00.963Z,1015.79
2018-02-06T06:51:00.976Z,1015.79
2018-02-06T06:52:00.979Z,1015.81
2018-02-06T06:53:00.992Z,1015.81
2018-02-06T06:54:00.988Z,1015.78
2018-02-06T06:55:01.001Z,1015.78
2018-02-06T06:56:01.012Z,1015.79
2018-02-06T06:57:01.014Z,1015.74
2018-02-06T06:58:01.009Z,1015.76
2018-02-06T06:59:01.024Z,1015.75
2018-02-06T07:00:01.040Z,1015.74
2018-02-06T07:01:01.040Z,1015.74
2018-02-06T07:02:01.036Z,1015.72
2018-02-06T07:03:01.041Z,1015.71
2018-02-06T07:04:01.057Z,1015.72
2018-02-06T07:05:01.050Z,1015.66
2018-02-06T07:06:01.060Z,1015.66
2018-02-06T07:07:01.067Z,1015.69
2018-02-06T07:08:01.063Z,1015.64
2018-02-06T07:09:01.077Z,1015.65
2018-02-06T07:10:01.082Z,1015.65
2018-02-06T07:11:01.087Z,1015.66
2018-02-06T07:12:01.092Z,1015.70
2018-02-06T07:13:01.095Z,1015.66
2018-02-06T07:14:01.100Z,1015.69
2018-02-06T07:15:01.101Z,1015.69
2018-02-06T07:16:01.127Z,1015.62
2018-02-06T07:17:01.134Z,1015.66
2018-02-06T07:18:01.125Z,1015.62
2018-02-06T07:19:01.119Z,1015.62
2018-02-06T07:20:01.146Z,1015.61
2018-02-06T07:21:01.138Z,1015.62
2018-02-06T07:22:01.148Z,1015.66
2018-02-06T07:23:01.148Z,1015.63
2018-02-06T07:24:01.156Z,1015.63
2018-02-06T07:25:01.164Z,1015.62
2018-02-06T07:26:01.161Z,1015.64
2018-02-06T07:27:01.179Z,1015.65
2018-02-06T07:28:01.181Z,1015.64
2018-02-06T07:29:01.184Z,1015.65
2018-02-06T07:30:01.183Z,1015.66
2018-02-06T07:31:01.198Z,1015.69
2018-02-06T07:32:01.201Z,1015.69
2018-02-06T07:33:01.209Z,1015.68
2018-02-06T07:34:01.207Z,1015.71
2018-02-06T07:35:01.211Z,1015.66
2018-02-06T07:36:01.227Z,1015.67
2018-02-06T07:37:01.231Z,1015.68
2018-02-06T07:38:01.227Z,1015.65
2018-02-06T07:39:01.240Z,1015.65
2018-02-06T07:40:01.243Z,1015.61
2018-02-06T07:41:01.269Z,1015.65
2018-02-06T07:42:01.257Z,1015.67
2018-02-06T07:43:01.257Z,1015.60
2018-02-06T07:44:01.274Z,1015.59
2018-02-06T07:45:01.288Z,1015.54
2018-02-06T07:46:01.274Z,1015.56
2018-02-06T07:47:01.292Z,1015.55
2018-02-06T07:48:01.291Z,1015.54
2018-02-06T07:49:01.312Z,1015.57
2018-02-06T07:50:01.302Z,1015.56
2018-02-06T07:51:01.306Z,1015.52
2018-02-06T07:52:01.323Z,1015.49
2018-02-06T07:53:01.325Z,1015.48
2018-02-06T07:54:01.318Z,1015.45
2018-02-06T07:55:01.333Z,1015.44
2018-02-06T07:56:01.339Z,1015.44
2018-02-06T07:57:01.350Z,1015.42
2018-02-06T07:58:01.347Z,1015.42
2018-02-06T07:59:01.352Z,1015.43
2018-02-06T08:00:01.367Z,1015.39
2018-02-06T08:01:01.368Z,1015.42
2018-02-06T08:02:01.367Z,1015.40
2018-02-06T08:03:01.389Z,1015.39
2018-02-06T08:04:01.385Z,1015.40
2018-02-06T08:05:01.399Z,1015.40
2018-02-06T08:06:01.392Z,1015.41
2018-02-06T08:07:01.405Z,1015.42
2018-02-06T08:08:01.414Z,1015.43
2018-02-06T08:09:01.423Z,1015.46
2018-02-06T08:10:01.427Z,1015.44
2018-02-06T08:11:01.427Z,1015.43
2018-02-06T08:12:01.453Z,1015.34
2018-02-06T08:13:01.446Z,1015.35
2018-02-06T08:14:01.451Z,1015.39
2018-02-06T08:15:01.449Z,1015.34
2018-02-06T08:16:01.466Z,1015.37
2018-02-06T08:17:01.465Z,1015.40
2018-02-06T08:18:01.475Z,1015.42
2018-02-06T08:19:01.483Z,1015.35
2018-02-06T08:20:01.480Z,1015.43
2018-02-06T08:21:01.488Z,1015.39
2018-02-06T08:22:01.498Z,1015.41
2018-02-06T08:23:01.502Z,1015.37
2018-02-06T08:24:01.514Z,1015.39
2018-02-06T08:25:01.507Z,1015.39
2018-02-06T08:26:01.537Z,1015.40
2018-02-06T08:27:01.528Z,1015.38
2018-02-06T08:28:01.538Z,1015.40
2018-02-06T08:29:01.547Z,1015.39
2018-02-06T08:30:01.544Z,1015.38
2018-02-06T08:31:01.551Z,1015.42
2018-02-06T08:32:01.560Z,1015.38
2018-02-06T08:33:01.565Z,1015.41
2018-02-06T08:34:01.573Z,1015.35
2018-02-06T08:35:01.589Z,1015.37
2018-02-06T08:36:01.582Z,1015.34
2018-02-06T08:37:01.587Z,1015.32
2018-02-06T08:38:01.600Z,1015.34
2018-02-06T08:39:01.614Z,1015.31
2018-02-06T08:40:01.615Z,1015.31
2018-02-06T08:41:01.618Z,1015.26
2018-02-06T08:42:01.626Z,1015.28
2018-02-06T08:43:01.631Z,1015.29
2018-02-06T08:44:01.648Z,1015.27
2018-02-06T08:45:01.651Z,1015.31
2018-02-06T08:46:01.643Z,1015.28
2018-02-06T08:47:01.661Z,1015.27
2018-02-06T08:48:01.663Z,1015.27
2018-02-06T08:49:01.676Z,1015.26
2018-02-06T08:50:01.685Z,1015.26
2018-02-06T08:51:01.689Z,1015.24
2018-02-06T08:52:01.706Z,1015.23
2018-02-06T08:53:01.708Z,1015.18
2018-02-06T08:54:01.703Z,1015.19
2018-02-06T08:55:01.721Z,1015.19
2018-02-06T08:56:01.719Z,1015.18
2018-02-06T08:57:01.733Z,1015.13
2018-02-06T08:58:01.741Z,1015.19
2018-02-06T08:59:01.734Z,1015.20
2018-02-06T09:00:01.747Z,1015.23
2018-02-06T09:01:01.753Z,1015.22
2018-02-06T09:02:01.766Z,1015.21
2018-02-06T09:03:01.777Z,1015.19
2018-02-06T09:04:01.780Z,1015.15
2018-02-06T09:05:01.790Z,1015.15
2018-02-06T09:06:01.799Z,1015.15
2018-02-06T09:07:01.792Z,1015.15
2018-02-06T09:08:01.805Z,1015.11
2018-02-06T09:09:01.809Z,1015.11
2018-02-06T09:10:01.830Z,1015.05
2018-02-06T09:11:01.836Z,1015.07
2018-02-06T09:12:01.839Z,1015.05
2018-02-06T09:13:01.887Z,1015.07
2018-02-06T09:14:01.849Z,1015.10
2018-02-06T09:15:01.856Z,1015.09
2018-02-06T09:16:01.865Z,1015.06
2018-02-06T09:17:01.872Z,1015.05
2018-02-06T09:18:01.877Z,1015.04
2018-02-06T09:19:01.894Z,1015.05
2018-02-06T09:20:01.896Z,1015.04
2018-02-06T09:21:01.897Z,1014.99
2018-02-06T09:22:01.906Z,1015.03
2018-02-06T09:23:01.916Z,1015.00
2018-02-06T09:24:01.926Z,1015.01
2018-02-06T09:25:01.932Z,1015.00
2018-02-06T09:26:01.938Z,1015.00
2018-02-06T09:27:01.951Z,1014.97
2018-02-06T09:28:01.955Z,1014.99
2018-02-06T09:29:01.979Z,1014.98
2018-02-06T09:30:01.962Z,1014.98
2018-02-06T09:31:01.968Z,1014.95
2018-02-06T09:32:01.983Z,1015.02
2018-02-06T09:33:01.988Z,1014.98
2018-02-06T09:34:01.997Z,1014.98
2018-02-06T09:35:02.013Z,1015.01
2018-02-06T09:36:02.018Z,1014.99
2018-02-06T09:37:02.025Z,1014.96
2018-02-06T09:38:02.033Z,1015.01
2018-02-06T09:39:02.027Z,1014.97
2018-02-06T09:40:02.043Z,1015.02
2018-02-06T09:41:02.047Z,1015.01
2018-02-06T09:42:02.068Z,1015.05
2018-02-06T09:43:02.070Z,1015.03
2018-02-06T09:44:02.072Z,1015.05
2018-02-06T09:45:02.083Z,1015.02
2018-02-06T09:46:02.100Z,1015.02
2018-02-06T09:47:02.102Z,1015.00
2018-02-06T09:48:02.113Z,1015.01
2018-02-06T09:49:02.117Z,1015.00
2018-02-06T09:50:02.126Z,1015.02
2018-02-06T09:51:02.143Z,1015.03
2018-02-06T09:52:02.132Z,1015.02
2018-02-06T09:53:02.145Z,1014.98
2018-02-06T09:54:02.157Z,1014.96
2018-02-06T09:55:02.159Z,1014.93
2018-02-06T09:56:02.169Z,1014.94
2018-02-06T09:57:02.184Z,1014.89
2018-02-06T09:58:02.187Z,1014.91
2018-02-06T09:59:02.197Z,1014.89
2018-02-06T10:00:02.203Z,1014.88
2018-02-06T10:01:02.217Z,1014.88
2018-02-06T10:02:02.226Z,1014.88
2018-02-06T10:03:02.232Z,1014.87
2018-02-06T10:04:02.247Z,1014.89
2018-02-06T10:05:02.245Z,1014.85
2018-02-06T10:06:02.243Z,1014.88
2018-02-06T10:07:02.255Z,1014.84
2018-02-06T10:08:02.262Z,1014.78
2018-02-06T10:09:02.287Z,1014.81
2018-02-06T10:10:02.292Z,1014.81
2018-02-06T10:11:02.289Z,1014.78
2018-02-06T10:12:02.300Z,1014.73
2018-02-06T10:13:02.306Z,1014.72
2018-02-06T10:14:02.314Z,1014.70
2018-02-06T10:15:02.330Z,1014.71
2018-02-06T10:16:02.334Z,1014.71
2018-02-06T10:17:02.348Z,1014.74
2018-02-06T10:18:02.353Z,1014.74
2018-02-06T10:19:02.356Z,1014.72
2018-02-06T10:20:02.376Z,1014.67
2018-02-06T10:21:02.376Z,1014.66
2018-02-06T10:22:02.384Z,1014.65
2018-02-06T10:23:02.397Z,1014.61
2018-02-06T10:24:02.404Z,1014.55
2018-02-06T10:25:02.419Z,1014.53
2018-02-06T10:26:02.425Z,1014.50
2018-02-06T10:27:02.427Z,1014.49
2018-02-06T10:28:02.430Z,1014.47
2018-02-06T10:29:02.450Z,1014.52
2018-02-06T10:30:02.445Z,1014.51
2018-02-06T10:31:02.455Z,1014.44
2018-02-06T10:32:02.465Z,1014.50
2018-02-06T10:33:02.483Z,1014.46
2018-02-06T10:34:02.487Z,1014.49
2018-02-06T10:35:02.490Z,1014.39
2018-02-06T10:36:02.498Z,1014.39
2018-02-06T10:37:02.504Z,1014.39
2018-02-06T10:38:02.513Z,1014.38
2018-02-06T10:39:02.531Z,1014.41
2018-02-06T10:40:02.532Z,1014.41
2018-02-06T10:41:02.548Z,1014.39
2018-02-06T10:42:02.555Z,1014.37
2018-02-06T10:43:02.559Z,1014.34
2018-02-06T10:44:02.569Z,1014.34
2018-02-06T10:45:02.584Z,1014.36
2018-02-06T10:46:02.590Z,1014.33
2018-02-06T10:47:02.595Z,1014.30
2018-02-06T10:48:02.606Z,1014.36
2018-02-06T10:49:02.611Z,1014.35
2018-02-06T10:50:02.625Z,1014.32
2018-02-06T10:51:02.632Z,1014.34
2018-02-06T10:52:02.639Z,1014.28
2018-02-06T10:53:02.653Z,1014.30
2018-02-06T10:54:02.660Z,1014.28
2018-02-06T10:55:02.669Z,1014.31
2018-02-06T10:56:02.677Z,1014.24
2018-02-06T10:57:02.682Z,1014.23
2018-02-06T10:58:02.691Z,1014.22
2018-02-06T10:59:02.761Z,1014.28
2018-02-06T11:00:02.708Z,1014.20
2018-02-06T11:01:02.721Z,1014.21
2018-02-06T11:02:02.735Z,1014.21
2018-02-06T11:03:02.739Z,1014.16
2018-02-06T11:04:02.750Z,1014.14
2018-02-06T11:05:02.754Z,1014.14
2018-02-06T11:06:02.763Z,1014.10
2018-02-06T11:07:02.776Z,1014.05
2018-02-06T11:08:02.792Z,1014.07
2018-02-06T11:09:02.793Z,1014.08
2018-02-06T11:10:02.802Z,1014.06
2018-02-06T11:11:02.806Z,1014.05
2018-02-06T11:12:02.833Z,1014.09
2018-02-06T11:13:02.829Z,1014.06
2018-02-06T11:14:02.834Z,1014.09
2018-02-06T11:15:02.847Z,1014.08
2018-02-06T11:16:02.855Z,1014.08
2018-02-06T11:17:02.866Z,1014.05
2018-02-06T11:18:02.874Z,1014.06
2018-02-06T11:19:02.879Z,1014.03
2018-02-06T11:20:02.890Z,1014.04
2018-02-06T11:21:02.895Z,1014.01
2018-02-06T11:22:02.906Z,1013.98
2018-02-06T11:23:02.917Z,1013.95
2018-02-06T11:24:02.924Z,1013.95
2018-02-06T11:25:02.941Z,1013.92
2018-02-06T11:26:02.946Z,1013.92
2018-02-06T11:27:02.951Z,1013.92
2018-02-06T11:28:02.961Z,1013.89
2018-02-06T11:29:02.966Z,1013.85
2018-02-06T11:30:02.979Z,1013.80
2018-02-06T11:31:02.988Z,1013.82
2018-02-06T11:32:02.993Z,1013.82
2018-02-06T11:33:03.007Z,1013.79
2018-02-06T11:34:03.016Z,1013.76
2018-02-06T11:35:03.024Z,1013.73
2018-02-06T11:36:03.034Z,1013.73
2018-02-06T11:37:03.040Z,1013.67
2018-02-06T11:38:03.048Z,1013.67
2018-02-06T11:39:03.061Z,1013.70
2018-02-06T11:40:03.067Z,1013.68
2018-02-06T11:41:03.077Z,1013.62
2018-02-06T11:42:03.085Z,1013.59
2018-02-06T11:43:03.097Z,1013.55
2018-02-06T11:44:03.108Z,1013.49
2018-02-06T11:45:03.113Z,1013.54
2018-02-06T11:46:03.119Z,1013.52
2018-02-06T11:47:03.133Z,1013.51
2018-02-06T11:48:03.135Z,1013.47
2018-02-06T11:49:03.149Z,1013.50
2018-02-06T11:50:03.158Z,1013.45
2018-02-06T11:51:03.162Z,1013.42
2018-02-06T11:52:03.180Z,1013.46
2018-02-06T11:53:03.186Z,1013.43
2018-02-06T11:54:03.191Z,1013.42
2018-02-06T11:55:03.205Z,1013.48
2018-02-06T11:56:03.214Z,1013.44
2018-02-06T11:57:03.223Z,1013.46
2018-02-06T11:58:03.230Z,1013.50
2018-02-06T11:59:03.240Z,1013.47
2018-02-06T12:00:03.250Z,1013.52
2018-02-06T12:01:03.265Z,1013.47
2018-02-06T12:02:03.264Z,1013.46
2018-02-06T12:03:03.289Z,1013.42
2018-02-06T12:04:03.294Z,1013.37
2018-02-06T12:05:03.305Z,1013.29
2018-02-06T12:06:03.314Z,1013.39
2018-02-06T12:07:03.318Z,1013.36
2018-02-06T12:08:03.335Z,1013.35
2018-02-06T12:09:03.340Z,1013.32
2018-02-06T12:10:03.352Z,1013.32
2018-02-06T12:11:03.356Z,1013.28
2018-02-06T12:12:03.364Z,1013.25
2018-02-06T12:13:03.377Z,1013.27
2018-02-06T12:14:03.385Z,1013.28
2018-02-06T12:15:03.390Z,1013.27
2018-02-06T12:16:03.401Z,1013.22
2018-02-06T12:17:03.406Z,1013.26
2018-02-06T12:18:03.414Z,1013.24
2018-02-06T12:19:03.430Z,1013.22
2018-02-06T12:20:03.439Z,1013.19
2018-02-06T12:21:03.445Z,1013.22
2018-02-06T12:22:03.454Z,1013.08
2018-02-06T12:23:03.462Z,1013.15
2018-02-06T12:24:03.477Z,1013.12
2018-02-06T12:25:03.478Z,1013.08
2018-02-06T12:26:03.489Z,1013.06
2018-02-06T12:27:03.501Z,1013.06
2018-02-06T12:28:03.504Z,1013.05
2018-02-06T12:29:03.532Z,1013.04
2018-02-06T12:30:03.525Z,1012.96
2018-02-06T12:31:03.530Z,1012.97
2018-02-06T12:32:03.592Z,1012.91
2018-02-06T12:33:03.566Z,1012.87
2018-02-06T12:34:03.583Z,1012.90
2018-02-06T12:35:03.588Z,1012.88
2018-02-06T12:36:03.589Z,1012.86
2018-02-06T12:37:03.602Z,1012.77
2018-02-06T12:38:03.623Z,1012.77
2018-02-06T12:39:03.616Z,1012.79
2018-02-06T12:40:03.627Z,1012.81
2018-02-06T12:41:03.631Z,1012.83
2018-02-06T12:42:03.660Z,1012.80
2018-02-06T12:43:03.654Z,1012.75
2018-02-06T12:44:03.660Z,1012.71
2018-02-06T12:45:03.676Z,1012.68
2018-02-06T12:46:03.681Z,1012.68
2018-02-06T12:47:03.687Z,1012.68
2018-02-06T12:48:03.698Z,1012.69
2018-02-06T12:49:03.703Z,1012.70
2018-02-06T12:50:03.711Z,1012.62
2018-02-06T12:51:03.726Z,1012.69
2018-02-06T12:52:03.733Z,1012.61
2018-02-06T12:53:03.742Z,1012.60
2018-02-06T12:54:03.753Z,1012.63
2018-02-06T12:55:03.761Z,1012.63
2018-02-06T12:56:03.767Z,1012.60
2018-02-06T12:57:03.781Z,1012.55
2018-02-06T12:58:03.790Z,1012.59
2018-02-06T12:59:03.806Z,1012.58
2018-02-06T13:00:03.817Z,1012.52
2018-02-06T13:01:03.820Z,1012.49
2018-02-06T13:02:03.830Z,1012.52
2018-02-06T13:03:03.843Z,1012.45
2018-02-06T13:04:03.850Z,1012.40
2018-02-06T13:05:03.862Z,1012.39
2018-02-06T13:06:03.871Z,1012.34
2018-02-06T13:07:03.877Z,1012.30
2018-02-06T13:08:03.889Z,1012.34
2018-02-06T13:09:03.898Z,1012.31
2018-02-06T13:10:03.906Z,1012.31
2018-02-06T13:11:03.919Z,1012.24
2018-02-06T13:12:03.925Z,1012.20
2018-02-06T13:13:03.933Z,1012.26
2018-02-06T13:14:03.941Z,1012.23
2018-02-06T13:15:03.946Z,1012.22
2018-02-06T13:16:03.961Z,1012.21
2018-02-06T13:17:03.968Z,1012.21
2018-02-06T13:18:03.987Z,1012.18
2018-02-06T13:19:03.991Z,1012.18
2018-02-06T13:20:03.991Z,1012.14
2018-02-06T13:21:04.016Z,1012.18
2018-02-06T13:22:04.028Z,1012.15
2018-02-06T13:23:04.034Z,1012.16
2018-02-06T13:24:04.041Z,1012.18
2018-02-06T13:25:04.054Z,1012.16
2018-02-06T13:26:04.061Z,1012.09
2018-02-06T13:27:04.123Z,1012.15
2018-02-06T13:28:04.076Z,1012.12
2018-02-06T13:29:04.094Z,1012.10
2018-02-06T13:30:04.101Z,1012.09
2018-02-06T13:31:04.128Z,1012.08
2018-02-06T13:32:04.113Z,1012.10
2018-02-06T13:33:04.119Z,1012.08
2018-02-06T13:34:04.127Z,1012.08
2018-02-06T13:35:04.146Z,1012.05
2018-02-06T13:36:04.153Z,1012.06
2018-02-06T13:37:04.162Z,1012.05
2018-02-06T13:38:04.169Z,1012.00
2018-02-06T13:39:04.186Z,1011.99
2018-02-06T13:40:04.200Z,1012.05
2018-02-06T13:41:04.206Z,1012.02
2018-02-06T13:42:04.213Z,1011.99
2018-02-06T13:43:04.226Z,1012.01
2018-02-06T13:44:04.232Z,1012.00
2018-02-06T13:45:04.242Z,1012.00
2018-02-06T13:46:04.251Z,1012.02
2018-02-06T13:47:04.255Z,1011.99
2018-02-06T13:48:04.272Z,1012.00
2018-02-06T13:49:04.277Z,1011.95
2018-02-06T13:50:04.289Z,1012.00
2018-02-06T13:51:04.297Z,1011.94
2018-02-06T13:52:04.302Z,1011.96
2018-02-06T13:53:04.312Z,1011.96
2018-02-06T13:54:04.324Z,1011.94
2018-02-06T13:55:04.347Z,1011.95
2018-02-06T13:56:04.345Z,1011.90
2018-02-06T13:57:04.348Z,1011.89
2018-02-06T13:58:04.356Z,1011.90
2018-02-06T13:59:04.373Z,1011.90
2018-02-06T14:00:04.385Z,1011.91
2018-02-06T14:01:04.398Z,1011.86
2018-02-06T14:02:04.415Z,1011.87
2018-02-06T14:03:04.411Z,1011.90